sensor_id;sensor_type;location;lat;lon;timestamp;pressure;altitude;pressure_sealevel;temperature;humidity
69219;BME280;56232;53.384;-2.732;2022-09-09T00:01:28;99945.30;;;16.52;48.46
69219;BME280;56232;53.384;-2.732;2022-09-09T00:03:54;99945.49;;;16.07;47.13
69219;BME280;56232;53.384;-2.732;2022-09-09T00:06:21;99952.39;;;16.46;48.26
69219;BME280;56232;53.384;-2.732;2022-09-09T00:08:46;99953.00;;;16.42;47.90
69219;BME280;56232;53.384;-2.732;2022-09-09T00:11:11;99954.88;;;15.65;47.68
69219;BME280;56232;53.384;-2.732;2022-09-09T00:13:34;99957.36;;;15.69;47.32
69219;BME280;56232;53.384;-2.732;2022-09-09T00:16:00;99959.76;;;15.51;47.76
69219;BME280;56232;53.384;-2.732;2022-09-09T00:18:25;99958.16;;;15.20;48.37
69219;BME280;56232;53.384;-2.732;2022-09-09T00:20:54;99958.13;;;15.17;48.08
69219;BME280;56232;53.384;-2.732;2022-09-09T00:23:19;99960.18;;;16.26;45.93
69219;BME280;56232;53.384;-2.732;2022-09-09T00:25:42;99964.24;;;15.15;45.86
69219;BME280;56232;53.384;-2.732;2022-09-09T00:28:04;99964.85;;;14.84;46.43
69219;BME280;56232;53.384;-2.732;2022-09-09T00:30:32;99967.00;;;15.27;46.75
69219;BME280;56232;53.384;-2.732;2022-09-09T00:32:58;99968.17;;;15.17;47.24
69219;BME280;56232;53.384;-2.732;2022-09-09T00:35:22;99968.76;;;15.17;47.71
69219;BME280;56232;53.384;-2.732;2022-09-09T00:37:46;99966.32;;;14.61;47.55
69219;BME280;56232;53.384;-2.732;2022-09-09T00:40:18;99967.61;;;15.23;47.83
69219;BME280;56232;53.384;-2.732;2022-09-09T00:42:40;99968.25;;;15.17;47.28
69219;BME280;56232;53.384;-2.732;2022-09-09T00:45:10;99964.94;;;14.99;45.79
69219;BME280;56232;53.384;-2.732;2022-09-09T00:47:39;99963.88;;;14.78;46.37
69219;BME280;56232;53.384;-2.732;2022-09-09T00:49:59;99962.47;;;14.55;47.01
69219;BME280;56232;53.384;-2.732;2022-09-09T00:52:26;99962.49;;;14.43;47.67
69219;BME280;56232;53.384;-2.732;2022-09-09T00:54:49;99960.82;;;14.37;47.42
69219;BME280;56232;53.384;-2.732;2022-09-09T00:57:17;99964.17;;;14.35;47.43
69219;BME280;56232;53.384;-2.732;2022-09-09T00:59:43;99963.35;;;14.83;47.74
69219;BME280;56232;53.384;-2.732;2022-09-09T01:01:59;99962.22;;;14.30;48.00
69219;BME280;56232;53.384;-2.732;2022-09-09T01:04:29;99964.79;;;14.33;47.92
69219;BME280;56232;53.384;-2.732;2022-09-09T01:06:55;99966.96;;;14.19;48.19
69219;BME280;56232;53.384;-2.732;2022-09-09T01:09:21;99967.87;;;14.28;47.85
69219;BME280;56232;53.384;-2.732;2022-09-09T01:11:50;99966.39;;;14.39;47.61
69219;BME280;56232;53.384;-2.732;2022-09-09T01:14:16;99967.46;;;15.00;47.49
69219;BME280;56232;53.384;-2.732;2022-09-09T01:16:31;99966.01;;;14.45;46.98
69219;BME280;56232;53.384;-2.732;2022-09-09T01:18:56;99966.41;;;14.40;46.77
69219;BME280;56232;53.384;-2.732;2022-09-09T01:21:29;99965.42;;;14.77;47.17
69219;BME280;56232;53.384;-2.732;2022-09-09T01:24:01;99965.35;;;14.27;47.43
69219;BME280;56232;53.384;-2.732;2022-09-09T01:26:17;99965.07;;;14.50;47.28
69219;BME280;56232;53.384;-2.732;2022-09-09T01:28:37;99967.72;;;14.76;47.36
69219;BME280;56232;53.384;-2.732;2022-09-09T01:31:04;99966.94;;;14.78;47.42
69219;BME280;56232;53.384;-2.732;2022-09-09T01:33:28;99967.56;;;14.78;47.55
69219;BME280;56232;53.384;-2.732;2022-09-09T01:35:57;99967.92;;;14.81;47.61
69219;BME280;56232;53.384;-2.732;2022-09-09T01:38:18;99970.57;;;15.41;47.25
69219;BME280;56232;53.384;-2.732;2022-09-09T01:40:45;99971.61;;;15.32;47.60
69219;BME280;56232;53.384;-2.732;2022-09-09T01:43:10;99968.40;;;14.22;48.10
69219;BME280;56232;53.384;-2.732;2022-09-09T01:45:35;99967.09;;;16.10;47.55
69219;BME280;56232;53.384;-2.732;2022-09-09T01:48:00;99967.22;;;14.00;48.01
69219;BME280;56232;53.384;-2.732;2022-09-09T01:50:26;99966.32;;;14.07;48.00
69219;BME280;56232;53.384;-2.732;2022-09-09T01:52:55;99964.45;;;15.20;48.29
69219;BME280;56232;53.384;-2.732;2022-09-09T01:55:16;99964.84;;;14.55;48.28
69219;BME280;56232;53.384;-2.732;2022-09-09T01:57:48;99965.79;;;14.99;48.19
69219;BME280;56232;53.384;-2.732;2022-09-09T02:00:08;99968.54;;;13.81;48.47
69219;BME280;56232;53.384;-2.732;2022-09-09T02:02:36;99969.72;;;14.96;47.76
69219;BME280;56232;53.384;-2.732;2022-09-09T02:05:04;99969.20;;;14.93;48.13
69219;BME280;56232;53.384;-2.732;2022-09-09T02:07:31;99970.68;;;14.89;47.79
69219;BME280;56232;53.384;-2.732;2022-09-09T02:09:57;99971.89;;;14.92;47.78
69219;BME280;56232;53.384;-2.732;2022-09-09T02:12:16;99972.75;;;14.41;47.79
69219;BME280;56232;53.384;-2.732;2022-09-09T02:14:43;99973.02;;;15.10;47.55
69219;BME280;56232;53.384;-2.732;2022-09-09T02:17:08;99973.01;;;15.17;47.24
69219;BME280;56232;53.384;-2.732;2022-09-09T02:19:32;99972.17;;;14.65;47.39
69219;BME280;56232;53.384;-2.732;2022-09-09T02:21:55;99971.35;;;15.29;47.56
69219;BME280;56232;53.384;-2.732;2022-09-09T02:24:20;99971.98;;;15.27;47.90
69219;BME280;56232;53.384;-2.732;2022-09-09T02:26:48;99971.53;;;15.20;47.50
69219;BME280;56232;53.384;-2.732;2022-09-09T02:29:14;99972.38;;;15.10;48.17
69219;BME280;56232;53.384;-2.732;2022-09-09T02:31:36;99972.40;;;15.15;48.11
69219;BME280;56232;53.384;-2.732;2022-09-09T02:34:03;99974.42;;;14.62;48.19
69219;BME280;56232;53.384;-2.732;2022-09-09T02:36:29;99978.55;;;14.63;48.46
69219;BME280;56232;53.384;-2.732;2022-09-09T02:38:51;99979.90;;;14.73;48.41
69219;BME280;56232;53.384;-2.732;2022-09-09T02:41:17;99977.69;;;14.96;48.29
69219;BME280;56232;53.384;-2.732;2022-09-09T02:43:42;99980.07;;;15.17;48.42
69219;BME280;56232;53.384;-2.732;2022-09-09T02:46:17;99980.95;;;15.94;48.45
69219;BME280;56232;53.384;-2.732;2022-09-09T02:48:36;99978.28;;;16.06;48.18
69219;BME280;56232;53.384;-2.732;2022-09-09T02:51:02;99979.99;;;15.48;48.40
69219;BME280;56232;53.384;-2.732;2022-09-09T02:53:28;99983.17;;;15.61;48.31
69219;BME280;56232;53.384;-2.732;2022-09-09T02:55:54;99985.52;;;16.32;48.29
69219;BME280;56232;53.384;-2.732;2022-09-09T02:58:17;99988.07;;;15.27;48.30
69219;BME280;56232;53.384;-2.732;2022-09-09T03:00:39;99987.53;;;15.88;48.40
69219;BME280;56232;53.384;-2.732;2022-09-09T03:03:04;99984.42;;;15.47;48.54
69219;BME280;56232;53.384;-2.732;2022-09-09T03:05:30;99982.20;;;15.59;48.42
69219;BME280;56232;53.384;-2.732;2022-09-09T03:07:55;99982.61;;;15.66;48.54
69219;BME280;56232;53.384;-2.732;2022-09-09T03:10:20;99980.39;;;15.77;48.48
69219;BME280;56232;53.384;-2.732;2022-09-09T03:12:46;99980.89;;;15.79;48.50
69219;BME280;56232;53.384;-2.732;2022-09-09T03:15:11;99985.08;;;16.29;48.46
69219;BME280;56232;53.384;-2.732;2022-09-09T03:17:36;99984.61;;;15.77;48.52
69219;BME280;56232;53.384;-2.732;2022-09-09T03:20:02;99981.94;;;15.79;48.17
69219;BME280;56232;53.384;-2.732;2022-09-09T03:22:27;99980.42;;;15.67;48.27
69219;BME280;56232;53.384;-2.732;2022-09-09T03:24:52;99978.70;;;15.63;48.36
69219;BME280;56232;53.384;-2.732;2022-09-09T03:27:18;99982.21;;;15.60;48.45
69219;BME280;56232;53.384;-2.732;2022-09-09T03:29:44;99983.05;;;15.62;48.47
69219;BME280;56232;53.384;-2.732;2022-09-09T03:32:08;99982.84;;;15.65;48.36
69219;BME280;56232;53.384;-2.732;2022-09-09T03:34:34;99984.44;;;15.29;48.49
69219;BME280;56232;53.384;-2.732;2022-09-09T03:36:59;99984.38;;;15.88;48.41
69219;BME280;56232;53.384;-2.732;2022-09-09T03:39:25;99986.23;;;16.03;48.34
69219;BME280;56232;53.384;-2.732;2022-09-09T03:41:50;99988.96;;;16.16;48.34
69219;BME280;56232;53.384;-2.732;2022-09-09T03:44:15;99993.14;;;15.75;48.22
69219;BME280;56232;53.384;-2.732;2022-09-09T03:46:42;99995.27;;;16.29;48.07
69219;BME280;56232;53.384;-2.732;2022-09-09T03:49:06;99995.17;;;16.23;47.95
69219;BME280;56232;53.384;-2.732;2022-09-09T03:51:32;99995.38;;;16.22;48.09
69219;BME280;56232;53.384;-2.732;2022-09-09T03:53:57;99994.80;;;16.30;48.15
69219;BME280;56232;53.384;-2.732;2022-09-09T03:56:22;99993.23;;;15.87;48.13
69219;BME280;56232;53.384;-2.732;2022-09-09T03:58:47;99996.58;;;15.85;48.01
69219;BME280;56232;53.384;-2.732;2022-09-09T04:01:13;99997.46;;;16.24;47.77
69219;BME280;56232;53.384;-2.732;2022-09-09T04:03:37;100001.35;;;16.71;48.05
69219;BME280;56232;53.384;-2.732;2022-09-09T04:06:04;100003.09;;;16.20;48.07
69219;BME280;56232;53.384;-2.732;2022-09-09T04:08:29;100006.67;;;16.25;48.22
69219;BME280;56232;53.384;-2.732;2022-09-09T04:10:54;100006.43;;;15.89;48.19
69219;BME280;56232;53.384;-2.732;2022-09-09T04:13:19;100008.76;;;15.36;48.02
69219;BME280;56232;53.384;-2.732;2022-09-09T04:15:50;100009.20;;;16.96;48.05
69219;BME280;56232;53.384;-2.732;2022-09-09T04:18:10;100010.07;;;16.52;48.04
69219;BME280;56232;53.384;-2.732;2022-09-09T04:20:35;100009.71;;;16.01;47.98
69219;BME280;56232;53.384;-2.732;2022-09-09T04:23:00;100009.69;;;16.50;47.92
69219;BME280;56232;53.384;-2.732;2022-09-09T04:25:26;100010.80;;;16.04;47.99
69219;BME280;56232;53.384;-2.732;2022-09-09T04:27:53;100010.32;;;16.02;48.02
69219;BME280;56232;53.384;-2.732;2022-09-09T04:30:17;100009.02;;;16.68;47.93
69219;BME280;56232;53.384;-2.732;2022-09-09T04:32:43;100010.23;;;16.69;47.99
69219;BME280;56232;53.384;-2.732;2022-09-09T04:35:07;100011.07;;;16.66;47.98
69219;BME280;56232;53.384;-2.732;2022-09-09T04:37:33;100013.52;;;16.02;47.48
69219;BME280;56232;53.384;-2.732;2022-09-09T04:39:58;100013.69;;;15.87;47.59
69219;BME280;56232;53.384;-2.732;2022-09-09T04:42:23;100011.16;;;16.42;47.81
69219;BME280;56232;53.384;-2.732;2022-09-09T04:44:49;100013.65;;;16.38;47.45
69219;BME280;56232;53.384;-2.732;2022-09-09T04:47:14;100012.40;;;15.31;47.55
69219;BME280;56232;53.384;-2.732;2022-09-09T04:49:39;100014.81;;;15.93;47.54
69219;BME280;56232;53.384;-2.732;2022-09-09T04:52:10;100016.90;;;15.92;47.48
69219;BME280;56232;53.384;-2.732;2022-09-09T04:54:31;100017.76;;;15.98;47.33
69219;BME280;56232;53.384;-2.732;2022-09-09T04:56:56;100019.72;;;16.91;47.50
69219;BME280;56232;53.384;-2.732;2022-09-09T04:59:22;100019.43;;;16.43;47.57
69219;BME280;56232;53.384;-2.732;2022-09-09T05:01:47;100019.01;;;16.53;47.55
69219;BME280;56232;53.384;-2.732;2022-09-09T05:04:12;100021.35;;;16.07;47.47
69219;BME280;56232;53.384;-2.732;2022-09-09T05:06:38;100023.49;;;15.55;47.55
69219;BME280;56232;53.384;-2.732;2022-09-09T05:09:03;100025.44;;;16.74;47.53
69219;BME280;56232;53.384;-2.732;2022-09-09T05:11:30;100028.65;;;15.65;47.03
69219;BME280;56232;53.384;-2.732;2022-09-09T05:13:54;100031.03;;;16.75;47.22
69219;BME280;56232;53.384;-2.732;2022-09-09T05:16:20;100030.68;;;16.74;47.13
69219;BME280;56232;53.384;-2.732;2022-09-09T05:18:45;100031.61;;;16.67;47.32
69219;BME280;56232;53.384;-2.732;2022-09-09T05:21:10;100035.53;;;16.12;47.42
69219;BME280;56232;53.384;-2.732;2022-09-09T05:23:35;100037.48;;;15.57;47.32
69219;BME280;56232;53.384;-2.732;2022-09-09T05:26:01;100036.23;;;16.07;47.39
69219;BME280;56232;53.384;-2.732;2022-09-09T05:28:27;100035.94;;;16.64;47.44
69219;BME280;56232;53.384;-2.732;2022-09-09T05:30:56;100041.06;;;16.64;46.97
69219;BME280;56232;53.384;-2.732;2022-09-09T05:33:17;100042.66;;;16.17;46.62
69219;BME280;56232;53.384;-2.732;2022-09-09T05:35:43;100042.23;;;15.56;46.89
69219;BME280;56232;53.384;-2.732;2022-09-09T05:38:08;100042.63;;;16.22;46.67
69219;BME280;56232;53.384;-2.732;2022-09-09T05:40:33;100048.82;;;16.76;46.36
69219;BME280;56232;53.384;-2.732;2022-09-09T05:43:00;100051.39;;;16.67;45.84
69219;BME280;56232;53.384;-2.732;2022-09-09T05:45:24;100054.86;;;16.40;45.36
69219;BME280;56232;53.384;-2.732;2022-09-09T05:47:52;100058.93;;;16.21;46.04
69219;BME280;56232;53.384;-2.732;2022-09-09T05:50:14;100061.09;;;16.20;46.05
69219;BME280;56232;53.384;-2.732;2022-09-09T05:52:40;100063.09;;;16.09;45.36
69219;BME280;56232;53.384;-2.732;2022-09-09T05:55:07;100063.95;;;16.55;46.15
69219;BME280;56232;53.384;-2.732;2022-09-09T05:57:30;100063.66;;;16.02;46.19
69219;BME280;56232;53.384;-2.732;2022-09-09T05:59:56;100067.65;;;16.11;46.43
69219;BME280;56232;53.384;-2.732;2022-09-09T06:02:21;100069.01;;;16.62;46.13
69219;BME280;56232;53.384;-2.732;2022-09-09T06:04:47;100068.70;;;16.05;44.74
69219;BME280;56232;53.384;-2.732;2022-09-09T06:07:12;100071.46;;;15.43;44.65
69219;BME280;56232;53.384;-2.732;2022-09-09T06:09:38;100072.95;;;15.40;45.46
69219;BME280;56232;53.384;-2.732;2022-09-09T06:12:03;100080.96;;;15.98;46.24
69219;BME280;56232;53.384;-2.732;2022-09-09T06:14:28;100083.76;;;16.18;45.85
69219;BME280;56232;53.384;-2.732;2022-09-09T06:16:54;100083.54;;;16.28;45.06
69219;BME280;56232;53.384;-2.732;2022-09-09T06:19:19;100085.95;;;16.29;45.75
69219;BME280;56232;53.384;-2.732;2022-09-09T06:21:45;100089.80;;;15.78;46.13
69219;BME280;56232;53.384;-2.732;2022-09-09T06:24:11;100091.70;;;16.42;46.25
69219;BME280;56232;53.384;-2.732;2022-09-09T06:26:37;100089.51;;;16.22;46.06
69219;BME280;56232;53.384;-2.732;2022-09-09T06:29:02;100090.79;;;15.86;46.35
69219;BME280;56232;53.384;-2.732;2022-09-09T06:31:28;100096.32;;;16.80;46.41
69219;BME280;56232;53.384;-2.732;2022-09-09T06:33:53;100097.16;;;17.06;46.40
69219;BME280;56232;53.384;-2.732;2022-09-09T06:36:18;100100.37;;;16.67;46.19
69219;BME280;56232;53.384;-2.732;2022-09-09T06:38:44;100103.92;;;17.33;45.65
69219;BME280;56232;53.384;-2.732;2022-09-09T06:41:09;100109.01;;;17.92;46.05
69219;BME280;56232;53.384;-2.732;2022-09-09T06:43:34;100111.81;;;17.51;46.13
69219;BME280;56232;53.384;-2.732;2022-09-09T06:46:01;100112.45;;;17.02;46.29
69219;BME280;56232;53.384;-2.732;2022-09-09T06:48:25;100115.60;;;17.14;46.12
69219;BME280;56232;53.384;-2.732;2022-09-09T06:50:50;100117.95;;;17.31;46.16
69219;BME280;56232;53.384;-2.732;2022-09-09T06:53:16;100117.29;;;17.48;46.09
69219;BME280;56232;53.384;-2.732;2022-09-09T06:55:41;100114.13;;;17.61;46.08
69219;BME280;56232;53.384;-2.732;2022-09-09T06:58:08;100114.64;;;17.22;46.18
69219;BME280;56232;53.384;-2.732;2022-09-09T07:00:31;100115.13;;;17.33;46.03
69219;BME280;56232;53.384;-2.732;2022-09-09T07:02:57;100114.06;;;17.88;46.05
69219;BME280;56232;53.384;-2.732;2022-09-09T07:05:22;100115.43;;;17.60;45.75
69219;BME280;56232;53.384;-2.732;2022-09-09T07:07:47;100117.19;;;18.13;45.85
69219;BME280;56232;53.384;-2.732;2022-09-09T07:10:13;100120.22;;;18.33;45.82
69219;BME280;56232;53.384;-2.732;2022-09-09T07:12:39;100122.82;;;18.53;45.68
69219;BME280;56232;53.384;-2.732;2022-09-09T07:15:05;100124.91;;;18.29;45.68
69219;BME280;56232;53.384;-2.732;2022-09-09T07:17:29;100127.27;;;17.95;44.80
69219;BME280;56232;53.384;-2.732;2022-09-09T07:19:54;100126.20;;;17.99;44.68
69219;BME280;56232;53.384;-2.732;2022-09-09T07:22:20;100126.84;;;18.07;44.64
69219;BME280;56232;53.384;-2.732;2022-09-09T07:24:45;100130.29;;;19.25;44.87
69219;BME280;56232;53.384;-2.732;2022-09-09T07:27:11;100128.94;;;18.89;44.97
69219;BME280;56232;53.384;-2.732;2022-09-09T07:29:36;100131.08;;;18.39;44.76
69219;BME280;56232;53.384;-2.732;2022-09-09T07:32:01;100133.59;;;18.08;44.78
69219;BME280;56232;53.384;-2.732;2022-09-09T07:34:26;100136.77;;;18.83;43.91
69219;BME280;56232;53.384;-2.732;2022-09-09T07:36:51;100143.61;;;19.09;43.26
69219;BME280;56232;53.384;-2.732;2022-09-09T07:39:17;100145.99;;;19.05;43.58
69219;BME280;56232;53.384;-2.732;2022-09-09T07:41:45;100146.50;;;19.61;42.38
69219;BME280;56232;53.384;-2.732;2022-09-09T07:44:09;100149.84;;;20.04;41.25
69219;BME280;56232;53.384;-2.732;2022-09-09T07:46:33;100153.27;;;19.99;40.15
69219;BME280;56232;53.384;-2.732;2022-09-09T07:48:59;100151.41;;;20.41;40.95
69219;BME280;56232;53.384;-2.732;2022-09-09T07:51:26;100150.53;;;20.47;40.68
69219;BME280;56232;53.384;-2.732;2022-09-09T07:53:52;100152.94;;;22.21;40.00
69219;BME280;56232;53.384;-2.732;2022-09-09T07:56:15;100152.12;;;22.18;40.48
69219;BME280;56232;53.384;-2.732;2022-09-09T07:58:40;100150.76;;;23.86;39.43
69219;BME280;56232;53.384;-2.732;2022-09-09T08:01:07;100151.78;;;25.03;38.60
69219;BME280;56232;53.384;-2.732;2022-09-09T08:03:30;100155.95;;;25.33;38.64
69219;BME280;56232;53.384;-2.732;2022-09-09T08:06:00;100157.27;;;26.69;37.87
69219;BME280;56232;53.384;-2.732;2022-09-09T08:08:21;100155.74;;;28.25;36.29
69219;BME280;56232;53.384;-2.732;2022-09-09T08:10:47;100159.16;;;27.67;36.20
69219;BME280;56232;53.384;-2.732;2022-09-09T08:13:12;100164.51;;;26.72;35.41
69219;BME280;56232;53.384;-2.732;2022-09-09T08:15:37;100166.72;;;26.05;36.99
69219;BME280;56232;53.384;-2.732;2022-09-09T08:18:03;100172.83;;;26.79;36.32
69219;BME280;56232;53.384;-2.732;2022-09-09T08:20:28;100173.57;;;25.83;36.47
69219;BME280;56232;53.384;-2.732;2022-09-09T08:22:55;100184.22;;;25.67;35.15
69219;BME280;56232;53.384;-2.732;2022-09-09T08:25:20;100188.79;;;24.56;35.98
69219;BME280;56232;53.384;-2.732;2022-09-09T08:27:45;100196.10;;;24.94;36.34
69219;BME280;56232;53.384;-2.732;2022-09-09T08:30:11;100196.50;;;24.53;35.43
69219;BME280;56232;53.384;-2.732;2022-09-09T08:32:35;100195.88;;;26.26;33.61
69219;BME280;56232;53.384;-2.732;2022-09-09T08:35:01;100198.90;;;27.29;33.33
69219;BME280;56232;53.384;-2.732;2022-09-09T08:37:26;100204.98;;;27.37;32.87
69219;BME280;56232;53.384;-2.732;2022-09-09T08:39:52;100207.21;;;26.31;31.44
69219;BME280;56232;53.384;-2.732;2022-09-09T08:42:25;100209.98;;;25.89;32.28
69219;BME280;56232;53.384;-2.732;2022-09-09T08:44:52;100213.05;;;25.99;32.23
69219;BME280;56232;53.384;-2.732;2022-09-09T08:47:14;100212.29;;;25.89;32.43
69219;BME280;56232;53.384;-2.732;2022-09-09T08:49:47;100208.35;;;27.26;31.06
69219;BME280;56232;53.384;-2.732;2022-09-09T08:51:59;100209.70;;;27.84;32.46
69219;BME280;56232;53.384;-2.732;2022-09-09T08:54:26;100215.20;;;30.15;30.42
69219;BME280;56232;53.384;-2.732;2022-09-09T08:56:50;100219.21;;;29.61;28.79
69219;BME280;56232;53.384;-2.732;2022-09-09T08:59:17;100215.57;;;28.58;29.25
69219;BME280;56232;53.384;-2.732;2022-09-09T09:01:49;100212.43;;;27.79;31.53
69219;BME280;56232;53.384;-2.732;2022-09-09T09:04:15;100209.56;;;28.56;32.00
69219;BME280;56232;53.384;-2.732;2022-09-09T09:06:42;100216.45;;;29.16;30.61
69219;BME280;56232;53.384;-2.732;2022-09-09T09:09:01;100221.16;;;29.51;29.62
69219;BME280;56232;53.384;-2.732;2022-09-09T09:11:22;100223.12;;;29.89;29.59
69219;BME280;56232;53.384;-2.732;2022-09-09T09:13:52;100221.11;;;28.15;30.37
69219;BME280;56232;53.384;-2.732;2022-09-09T09:16:19;100227.77;;;28.07;30.51
69219;BME280;56232;53.384;-2.732;2022-09-09T09:18:39;100227.82;;;27.95;32.52
69219;BME280;56232;53.384;-2.732;2022-09-09T09:21:10;100228.08;;;28.64;31.93
69219;BME280;56232;53.384;-2.732;2022-09-09T09:23:35;100235.09;;;30.44;31.36
69219;BME280;56232;53.384;-2.732;2022-09-09T09:25:58;100235.74;;;31.67;28.62
69219;BME280;56232;53.384;-2.732;2022-09-09T09:28:24;100241.28;;;32.13;26.99
69219;BME280;56232;53.384;-2.732;2022-09-09T09:30:52;100245.17;;;30.90;28.62
69219;BME280;56232;53.384;-2.732;2022-09-09T09:33:15;100249.74;;;30.11;28.31
69219;BME280;56232;53.384;-2.732;2022-09-09T09:35:37;100255.78;;;29.55;30.14
69219;BME280;56232;53.384;-2.732;2022-09-09T09:38:13;100255.78;;;30.09;30.23
69219;BME280;56232;53.384;-2.732;2022-09-09T09:40:28;100253.91;;;31.37;28.71
69219;BME280;56232;53.384;-2.732;2022-09-09T09:42:56;100250.96;;;31.13;29.79
69219;BME280;56232;53.384;-2.732;2022-09-09T09:45:27;100253.24;;;31.51;28.74
69219;BME280;56232;53.384;-2.732;2022-09-09T09:47:45;100254.64;;;31.90;28.39
69219;BME280;56232;53.384;-2.732;2022-09-09T09:50:16;100260.53;;;30.32;28.86
69219;BME280;56232;53.384;-2.732;2022-09-09T09:52:35;100265.48;;;30.54;28.34
69219;BME280;56232;53.384;-2.732;2022-09-09T09:55:03;100266.83;;;30.05;28.52
69219;BME280;56232;53.384;-2.732;2022-09-09T09:57:28;100270.79;;;29.76;28.93
69219;BME280;56232;53.384;-2.732;2022-09-09T10:00:00;100268.65;;;28.44;29.51
69219;BME280;56232;53.384;-2.732;2022-09-09T10:02:20;100267.53;;;28.38;28.82
69219;BME280;56232;53.384;-2.732;2022-09-09T10:04:44;100267.19;;;27.69;29.90
69219;BME280;56232;53.384;-2.732;2022-09-09T10:07:11;100268.69;;;27.53;28.86
69219;BME280;56232;53.384;-2.732;2022-09-09T10:09:34;100271.87;;;27.46;30.21
69219;BME280;56232;53.384;-2.732;2022-09-09T10:12:04;100274.30;;;26.61;29.90
69219;BME280;56232;53.384;-2.732;2022-09-09T10:14:28;100275.55;;;27.03;31.65
69219;BME280;56232;53.384;-2.732;2022-09-09T10:17:00;100278.15;;;27.23;30.07
69219;BME280;56232;53.384;-2.732;2022-09-09T10:19:29;100280.94;;;27.25;30.44
69219;BME280;56232;53.384;-2.732;2022-09-09T10:21:51;100279.88;;;27.32;28.89
69219;BME280;56232;53.384;-2.732;2022-09-09T10:24:25;100279.84;;;27.75;30.04
69219;BME280;56232;53.384;-2.732;2022-09-09T10:26:40;100280.81;;;30.05;28.55
69219;BME280;56232;53.384;-2.732;2022-09-09T10:29:11;100287.41;;;30.16;29.52
69219;BME280;56232;53.384;-2.732;2022-09-09T10:31:30;100291.03;;;29.90;28.24
69219;BME280;56232;53.384;-2.732;2022-09-09T10:33:54;100288.65;;;29.52;27.85
69219;BME280;56232;53.384;-2.732;2022-09-09T10:36:18;100289.79;;;28.45;28.97
69219;BME280;56232;53.384;-2.732;2022-09-09T10:38:41;100292.23;;;28.70;29.98
69219;BME280;56232;53.384;-2.732;2022-09-09T10:41:13;100294.19;;;28.24;29.81
69219;BME280;56232;53.384;-2.732;2022-09-09T10:43:42;100294.17;;;27.75;28.80
69219;BME280;56232;53.384;-2.732;2022-09-09T10:46:04;100289.14;;;28.79;28.89
69219;BME280;56232;53.384;-2.732;2022-09-09T10:48:30;100293.70;;;27.20;28.79
69219;BME280;56232;53.384;-2.732;2022-09-09T10:50:55;100296.12;;;27.46;31.59
69219;BME280;56232;53.384;-2.732;2022-09-09T10:53:21;100300.53;;;27.31;29.91
69219;BME280;56232;53.384;-2.732;2022-09-09T10:55:41;100299.79;;;27.14;30.24
69219;BME280;56232;53.384;-2.732;2022-09-09T10:58:05;100301.00;;;27.35;29.23
69219;BME280;56232;53.384;-2.732;2022-09-09T11:00:37;100302.90;;;26.84;30.72
69219;BME280;56232;53.384;-2.732;2022-09-09T11:02:57;100303.16;;;26.14;30.14
69219;BME280;56232;53.384;-2.732;2022-09-09T11:05:26;100306.13;;;26.76;30.85
69219;BME280;56232;53.384;-2.732;2022-09-09T11:07:49;100302.39;;;25.78;28.38
69219;BME280;56232;53.384;-2.732;2022-09-09T11:10:20;100305.72;;;26.90;30.19
69219;BME280;56232;53.384;-2.732;2022-09-09T11:12:39;100305.27;;;26.05;30.41
69219;BME280;56232;53.384;-2.732;2022-09-09T11:15:08;100307.11;;;26.06;30.85
69219;BME280;56232;53.384;-2.732;2022-09-09T11:17:35;100309.27;;;25.90;32.17
69219;BME280;56232;53.384;-2.732;2022-09-09T11:19:54;100308.93;;;25.81;30.58
69219;BME280;56232;53.384;-2.732;2022-09-09T11:22:26;100310.51;;;25.59;31.67
69219;BME280;56232;53.384;-2.732;2022-09-09T11:24:48;100312.10;;;25.35;32.07
69219;BME280;56232;53.384;-2.732;2022-09-09T11:27:13;100311.38;;;25.98;31.77
69219;BME280;56232;53.384;-2.732;2022-09-09T11:29:49;100315.40;;;25.44;30.17
69219;BME280;56232;53.384;-2.732;2022-09-09T11:32:12;100317.73;;;25.93;30.37
69219;BME280;56232;53.384;-2.732;2022-09-09T11:34:37;100318.23;;;25.51;30.29
69219;BME280;56232;53.384;-2.732;2022-09-09T11:37:04;100319.72;;;24.43;30.86
69219;BME280;56232;53.384;-2.732;2022-09-09T11:41:44;100317.40;;;24.78;30.73
69219;BME280;56232;53.384;-2.732;2022-09-09T11:44:11;100318.66;;;23.63;31.04
69219;BME280;56232;53.384;-2.732;2022-09-09T11:46:36;100320.22;;;23.26;31.57
69219;BME280;56232;53.384;-2.732;2022-09-09T11:49:00;100321.87;;;23.61;31.59
69219;BME280;56232;53.384;-2.732;2022-09-09T11:51:26;100322.02;;;23.68;32.36
69219;BME280;56232;53.384;-2.732;2022-09-09T11:53:52;100319.26;;;24.02;31.49
69219;BME280;56232;53.384;-2.732;2022-09-09T11:56:24;100320.95;;;24.98;30.83
69219;BME280;56232;53.384;-2.732;2022-09-09T11:58:43;100321.16;;;25.39;29.92
69219;BME280;56232;53.384;-2.732;2022-09-09T12:01:13;100321.68;;;25.56;29.89
69219;BME280;56232;53.384;-2.732;2022-09-09T12:03:36;100317.90;;;26.51;29.60
69219;BME280;56232;53.384;-2.732;2022-09-09T12:05:58;100317.61;;;27.05;29.88
69219;BME280;56232;53.384;-2.732;2022-09-09T12:08:27;100318.70;;;26.26;29.01
69219;BME280;56232;53.384;-2.732;2022-09-09T12:10:55;100321.36;;;25.47;29.57
69219;BME280;56232;53.384;-2.732;2022-09-09T12:13:16;100323.42;;;25.68;29.23
69219;BME280;56232;53.384;-2.732;2022-09-09T12:15:48;100327.90;;;25.50;29.56
69219;BME280;56232;53.384;-2.732;2022-09-09T12:18:07;100328.57;;;25.23;30.02
69219;BME280;56232;53.384;-2.732;2022-09-09T12:20:34;100327.93;;;24.82;29.72
69219;BME280;56232;53.384;-2.732;2022-09-09T12:25:28;100325.12;;;24.54;31.05
69219;BME280;56232;53.384;-2.732;2022-09-09T12:27:56;100326.27;;;24.52;30.49
69219;BME280;56232;53.384;-2.732;2022-09-09T12:30:15;100324.98;;;25.73;31.29
69219;BME280;56232;53.384;-2.732;2022-09-09T12:32:38;100331.36;;;24.44;31.50
69219;BME280;56232;53.384;-2.732;2022-09-09T12:35:09;100336.49;;;25.58;30.69
69219;BME280;56232;53.384;-2.732;2022-09-09T12:37:32;100339.52;;;25.55;30.23